createdAt,value
2023-05-28T00:00:31.523Z,6.38
2023-05-28T00:03:01.555Z,8.02
2023-05-28T00:05:30.657Z,7.75
2023-05-28T00:08:02.600Z,6.95
2023-05-28T00:10:31.674Z,6.15
2023-05-28T00:13:01.146Z,6.80
2023-05-28T00:15:31.950Z,7.38
2023-05-28T00:18:01.096Z,5.97
2023-05-28T00:20:30.340Z,8.85
2023-05-28T00:22:59.650Z,7.05
2023-05-28T00:25:28.788Z,5.80
2023-05-28T00:27:58.397Z,5.97
2023-05-28T00:30:27.497Z,6.07
2023-05-28T00:32:58.182Z,5.53
2023-05-28T00:35:27.385Z,8.13
2023-05-28T00:37:56.475Z,6.53
2023-05-28T00:40:25.604Z,8.25
2023-05-28T00:42:55.165Z,5.95
2023-05-28T00:45:24.331Z,7.05
2023-05-28T00:47:53.617Z,9.30
2023-05-28T00:50:24.780Z,6.63
2023-05-28T00:52:54.697Z,7.85
2023-05-28T00:55:24.279Z,6.28
2023-05-28T00:57:56.225Z,6.00
2023-05-28T01:00:25.731Z,6.35
2023-05-28T01:02:55.858Z,6.53
2023-05-28T01:05:26.709Z,6.88
2023-05-28T01:07:55.963Z,5.40
2023-05-28T01:10:25.062Z,6.40
2023-05-28T01:12:55.119Z,5.72
2023-05-28T01:15:25.475Z,6.53
2023-05-28T01:17:59.685Z,6.63
2023-05-28T01:20:31.932Z,6.95
2023-05-28T01:23:05.500Z,8.55
2023-05-28T01:25:36.588Z,7.22
2023-05-28T01:28:14.537Z,7.28
2023-05-28T01:30:45.272Z,6.78
2023-05-28T01:33:14.718Z,5.85
2023-05-28T01:35:44.983Z,6.65
2023-05-28T01:38:17.378Z,6.47
2023-05-28T01:40:50.235Z,6.55
2023-05-28T01:43:19.717Z,5.30
2023-05-28T01:45:50.393Z,5.50
2023-05-28T01:48:20.590Z,5.43
2023-05-28T01:50:49.881Z,5.93
2023-05-28T01:53:18.901Z,5.57
2023-05-28T01:55:50.050Z,6.80
2023-05-28T01:58:19.081Z,5.53
2023-05-28T02:00:57.614Z,7.03
2023-05-28T02:03:27.085Z,4.93
2023-05-28T02:05:56.294Z,8.27
2023-05-28T02:08:25.383Z,6.43
2023-05-28T02:10:56.926Z,5.05
2023-05-28T02:13:26.085Z,6.68
2023-05-28T02:15:55.470Z,6.57
2023-05-28T02:18:24.836Z,6.13
2023-05-28T02:20:53.936Z,7.15
2023-05-28T02:23:22.976Z,6.28
2023-05-28T02:25:52.272Z,6.20
2023-05-28T02:28:23.575Z,6.40
2023-05-28T02:30:52.731Z,6.03
2023-05-28T02:33:21.857Z,6.28
2023-05-28T02:35:50.990Z,5.65
2023-05-28T02:38:20.116Z,6.85
2023-05-28T02:40:49.418Z,5.93
2023-05-28T02:43:18.532Z,9.13
2023-05-28T02:45:49.257Z,6.78
2023-05-28T02:48:18.431Z,4.88
2023-05-28T02:50:47.536Z,7.63
2023-05-28T02:53:16.751Z,4.65
2023-05-28T02:55:45.827Z,9.52
2023-05-28T02:58:15.573Z,6.18
2023-05-28T03:00:44.590Z,6.13
2023-05-28T03:03:15.737Z,6.40
2023-05-28T03:05:45.142Z,6.32
2023-05-28T03:08:14.304Z,7.45
2023-05-28T03:10:43.390Z,5.20
2023-05-28T03:13:12.491Z,7.50
2023-05-28T03:15:41.607Z,7.00
2023-05-28T03:18:10.729Z,7.10
2023-05-28T03:20:41.826Z,5.25
2023-05-28T03:23:10.857Z,6.22
2023-05-28T03:25:39.952Z,5.28
2023-05-28T03:28:09.031Z,6.45
2023-05-28T03:30:38.122Z,5.57
2023-05-28T03:33:07.325Z,6.82
2023-05-28T03:35:36.493Z,6.10
2023-05-28T03:38:07.498Z,6.18
2023-05-28T03:40:36.605Z,5.13
2023-05-28T03:43:07.062Z,6.72
2023-05-28T03:45:36.462Z,7.40
2023-05-28T03:48:05.824Z,5.63
2023-05-28T03:50:34.984Z,4.68
2023-05-28T03:53:05.852Z,8.13
2023-05-28T03:55:37.896Z,5.72
2023-05-28T03:58:07.183Z,5.13
2023-05-28T04:00:36.210Z,7.50
2023-05-28T04:03:06.026Z,6.55
2023-05-28T04:05:35.601Z,7.82
2023-05-28T04:08:06.412Z,5.47
2023-05-28T04:10:35.694Z,7.25
2023-05-28T04:13:04.807Z,7.55
2023-05-28T04:15:33.845Z,5.25
2023-05-28T04:18:03.002Z,7.78
2023-05-28T04:20:32.042Z,4.90
2023-05-28T04:23:01.094Z,6.32
2023-05-28T04:25:31.816Z,5.63
2023-05-28T04:28:02.702Z,9.27
2023-05-28T04:30:31.691Z,5.15
2023-05-28T04:33:00.803Z,6.05
2023-05-28T04:35:31.048Z,5.78
2023-05-28T04:38:01.499Z,5.40
2023-05-28T04:40:32.205Z,8.10
2023-05-28T04:43:01.633Z,8.25
2023-05-28T04:45:30.633Z,5.70
2023-05-28T04:47:59.649Z,8.82
2023-05-28T04:50:28.747Z,6.43
2023-05-28T04:52:57.877Z,6.05
2023-05-28T04:55:26.960Z,5.15
2023-05-28T04:57:57.895Z,8.52
2023-05-28T05:00:28.936Z,5.85
2023-05-28T05:02:58.550Z,6.40
2023-05-28T05:05:27.590Z,8.40
2023-05-28T05:07:56.748Z,7.03
2023-05-28T05:10:25.950Z,5.78
2023-05-28T05:12:56.698Z,5.85
2023-05-28T05:15:25.816Z,7.43
2023-05-28T05:17:54.998Z,6.50
2023-05-28T05:20:24.232Z,5.80
2023-05-28T05:22:53.350Z,6.03
2023-05-28T05:25:22.420Z,7.72
2023-05-28T05:27:55.030Z,5.65
2023-05-28T05:30:25.724Z,6.75
2023-05-28T05:32:54.838Z,5.53
2023-05-28T05:35:23.944Z,6.28
2023-05-28T05:37:53.030Z,5.70
2023-05-28T05:40:22.279Z,7.15
2023-05-28T05:42:51.361Z,5.85
2023-05-28T05:45:20.360Z,6.40
2023-05-28T05:47:51.060Z,6.53
2023-05-28T05:50:20.169Z,8.93
2023-05-28T05:52:49.264Z,7.22
2023-05-28T05:55:18.510Z,10.85
2023-05-28T05:57:47.657Z,9.40
2023-05-28T06:00:17.041Z,10.73
2023-05-28T06:02:46.587Z,10.13
2023-05-28T06:05:17.486Z,6.47
2023-05-28T06:07:47.389Z,6.50
2023-05-28T06:10:16.985Z,6.75
2023-05-28T06:12:46.150Z,6.15
2023-05-28T06:15:15.934Z,8.77
2023-05-28T06:17:45.494Z,6.32
2023-05-28T06:20:15.688Z,7.68
2023-05-28T06:22:46.602Z,10.35
2023-05-28T06:25:16.381Z,8.73
2023-05-28T06:27:45.488Z,7.55
2023-05-28T06:30:15.714Z,8.27
2023-05-28T06:32:45.083Z,9.00
2023-05-28T06:35:14.290Z,9.02
2023-05-28T06:37:43.434Z,7.07
2023-05-28T06:40:14.524Z,6.28
2023-05-28T06:42:43.529Z,7.28
2023-05-28T06:45:13.282Z,9.27
2023-05-28T06:47:42.467Z,7.82
2023-05-28T06:50:12.153Z,7.40
2023-05-28T06:52:41.467Z,6.97
2023-05-28T06:55:10.853Z,5.95
2023-05-28T06:57:41.656Z,6.20
2023-05-28T07:00:16.115Z,7.72
2023-05-28T07:02:46.662Z,8.02
2023-05-28T07:05:15.955Z,7.70
2023-05-28T07:07:45.293Z,7.85
2023-05-28T07:10:16.223Z,7.38
2023-05-28T07:12:47.284Z,9.38
2023-05-28T07:15:17.824Z,8.70
2023-05-28T07:17:46.985Z,6.72
2023-05-28T07:20:18.172Z,9.82
2023-05-28T07:22:47.262Z,8.85
2023-05-28T07:25:16.547Z,9.45
2023-05-28T07:27:47.313Z,8.13
2023-05-28T07:30:16.632Z,9.35
2023-05-28T07:32:45.681Z,7.68
2023-05-28T07:35:14.790Z,7.22
2023-05-28T07:37:44.091Z,7.28
2023-05-28T07:40:14.264Z,7.68
2023-05-28T07:42:43.360Z,9.25
2023-05-28T07:45:14.244Z,8.98
2023-05-28T07:47:43.331Z,7.47
2023-05-28T07:50:13.095Z,7.65
2023-05-28T07:52:42.665Z,6.55
2023-05-28T07:55:12.038Z,7.15
2023-05-28T07:57:41.506Z,8.70
2023-05-28T08:00:14.640Z,7.65
2023-05-28T08:02:47.402Z,8.23
2023-05-28T08:05:18.735Z,8.30
2023-05-28T08:07:47.740Z,6.28
2023-05-28T08:10:16.946Z,8.25
2023-05-28T08:12:46.004Z,7.35
2023-05-28T08:15:15.478Z,8.32
2023-05-28T08:17:46.296Z,8.32
2023-05-28T08:20:15.632Z,7.13
2023-05-28T08:22:44.862Z,7.32
2023-05-28T08:25:13.991Z,7.25
2023-05-28T08:27:43.203Z,7.30
2023-05-28T08:30:13.309Z,10.13
2023-05-28T08:32:42.521Z,8.52
2023-05-28T08:35:14.803Z,8.18
2023-05-28T08:37:43.850Z,11.43
2023-05-28T08:40:15.405Z,8.85
2023-05-28T08:42:45.446Z,7.93
2023-05-28T08:45:15.177Z,8.85
2023-05-28T08:47:45.430Z,10.30
2023-05-28T08:50:18.480Z,8.77
2023-05-28T08:52:49.244Z,8.82
2023-05-28T08:55:18.928Z,7.32
2023-05-28T08:57:48.409Z,10.63
2023-05-28T09:00:18.198Z,7.65
2023-05-28T09:02:47.840Z,9.73
2023-05-28T09:05:18.741Z,9.93
2023-05-28T09:07:47.995Z,8.18
2023-05-28T09:10:16.997Z,8.57
2023-05-28T09:13:00.064Z,9.10
2023-05-28T09:15:29.705Z,8.48
2023-05-28T09:18:00.625Z,11.48
2023-05-28T09:20:31.545Z,7.78
2023-05-28T09:23:02.677Z,9.18
2023-05-28T09:25:34.939Z,8.18
2023-05-28T09:28:04.383Z,8.45
2023-05-28T09:30:37.528Z,8.95
2023-05-28T09:33:07.936Z,11.82
2023-05-28T09:35:38.931Z,11.30
2023-05-28T09:38:12.001Z,8.75
2023-05-28T09:40:41.877Z,10.48
2023-05-28T09:43:11.499Z,11.55
2023-05-28T09:45:40.583Z,11.18
2023-05-28T09:48:09.639Z,14.23
2023-05-28T09:50:40.550Z,12.05
2023-05-28T09:53:10.976Z,10.30
2023-05-28T09:55:40.670Z,12.55
2023-05-28T09:58:11.885Z,8.95
2023-05-28T10:00:46.163Z,11.13
2023-05-28T10:03:24.355Z,10.70
2023-05-28T10:05:59.270Z,9.50
2023-05-28T10:08:28.743Z,12.40
2023-05-28T10:10:58.453Z,11.30
2023-05-28T10:13:29.116Z,10.00
2023-05-28T10:15:59.307Z,10.98
2023-05-28T10:18:29.885Z,11.38
2023-05-28T10:21:01.165Z,9.52
2023-05-28T10:23:30.889Z,14.07
2023-05-28T10:26:00.692Z,15.70
2023-05-28T10:28:32.586Z,10.18
2023-05-28T10:31:06.928Z,12.43
2023-05-28T10:33:41.710Z,10.85
2023-05-28T10:36:17.834Z,10.10
2023-05-28T10:38:47.964Z,9.32
2023-05-28T10:41:23.801Z,7.72
2023-05-28T10:43:53.690Z,10.32
2023-05-28T10:46:38.112Z,9.63
2023-05-28T10:49:14.937Z,9.02
2023-05-28T10:51:54.911Z,10.40
2023-05-28T10:54:43.338Z,10.43
2023-05-28T10:57:14.370Z,7.20
2023-05-28T10:59:48.250Z,9.25
2023-05-28T11:02:21.210Z,9.02
2023-05-28T11:04:53.718Z,8.57
2023-05-28T11:07:30.285Z,11.32
2023-05-28T11:10:00.442Z,10.43
2023-05-28T11:12:30.348Z,8.43
2023-05-28T11:14:59.576Z,8.13
2023-05-28T11:17:28.756Z,9.65
2023-05-28T11:19:58.023Z,7.65
2023-05-28T11:22:37.403Z,9.88
2023-05-28T11:25:10.613Z,11.02
2023-05-28T11:27:39.988Z,10.02
2023-05-28T11:30:13.078Z,13.27
2023-05-28T11:32:43.146Z,11.27
2023-05-28T11:35:13.712Z,10.75
2023-05-28T11:37:46.492Z,8.88
2023-05-28T11:40:17.073Z,10.88
2023-05-28T11:42:46.736Z,10.57
2023-05-28T11:45:15.872Z,13.25
2023-05-28T11:47:44.970Z,11.95
2023-05-28T11:50:15.869Z,13.45
2023-05-28T11:52:47.512Z,10.50
2023-05-28T11:55:17.598Z,13.18
2023-05-28T11:57:55.690Z,12.80
2023-05-28T12:00:35.338Z,8.32
2023-05-28T12:03:04.791Z,10.48
2023-05-28T12:05:42.431Z,9.38
2023-05-28T12:08:13.573Z,8.82
2023-05-28T12:10:42.645Z,10.13
2023-05-28T12:13:15.245Z,11.52
2023-05-28T12:15:45.447Z,11.15
2023-05-28T12:18:14.508Z,12.90
2023-05-28T12:20:44.070Z,10.32
2023-05-28T12:23:15.223Z,11.68
2023-05-28T12:25:52.315Z,11.93
2023-05-28T12:28:22.444Z,12.02
2023-05-28T12:30:52.729Z,12.85
2023-05-28T12:33:22.464Z,11.30
2023-05-28T12:35:52.377Z,11.20
2023-05-28T12:38:23.078Z,12.18
2023-05-28T12:40:52.198Z,15.45
2023-05-28T12:43:23.253Z,11.15
2023-05-28T12:45:52.492Z,13.93
2023-05-28T12:48:21.598Z,13.27
2023-05-28T12:50:50.798Z,15.65
2023-05-28T12:53:21.581Z,13.30
2023-05-28T12:55:50.815Z,11.30
2023-05-28T12:58:19.960Z,10.50
2023-05-28T13:00:49.143Z,12.88
2023-05-28T13:03:20.643Z,14.48
2023-05-28T13:05:50.852Z,13.40
2023-05-28T13:08:21.812Z,13.80
2023-05-28T13:10:50.796Z,12.88
2023-05-28T13:13:19.824Z,12.35
2023-05-28T13:15:48.909Z,13.15
2023-05-28T13:18:17.955Z,12.95
2023-05-28T13:20:47.100Z,15.32
2023-05-28T13:23:16.344Z,15.80
2023-05-28T13:25:47.201Z,13.45
2023-05-28T13:28:16.937Z,12.75
2023-05-28T13:30:45.980Z,13.13
2023-05-28T13:33:15.028Z,14.10
2023-05-28T13:35:44.377Z,24.58
2023-05-28T13:38:13.501Z,13.65
2023-05-28T13:40:42.711Z,13.32
2023-05-28T13:43:15.516Z,13.23
2023-05-28T13:45:44.601Z,17.33
2023-05-28T13:48:13.779Z,15.98
2023-05-28T13:50:42.824Z,14.00
2023-05-28T13:53:11.920Z,13.98
2023-05-28T13:55:41.258Z,12.75
2023-05-28T13:58:10.274Z,11.73
2023-05-28T14:00:41.034Z,11.68
2023-05-28T14:03:10.373Z,14.60
2023-05-28T14:05:39.546Z,15.52
2023-05-28T14:08:08.982Z,13.45
2023-05-28T14:10:38.083Z,12.15
2023-05-28T14:13:07.155Z,12.13
2023-05-28T14:15:36.212Z,13.90
2023-05-28T14:18:08.327Z,16.05
2023-05-28T14:20:37.605Z,15.55
2023-05-28T14:23:07.057Z,15.90
2023-05-28T14:25:36.174Z,15.10
2023-05-28T14:28:12.040Z,16.65
2023-05-28T14:30:41.834Z,16.58
2023-05-28T14:33:12.867Z,17.13
2023-05-28T14:35:41.972Z,11.82
2023-05-28T14:38:11.014Z,14.40
2023-05-28T14:40:40.071Z,13.82
2023-05-28T14:43:09.231Z,13.40
2023-05-28T14:45:38.217Z,14.75
2023-05-28T14:48:07.375Z,14.75
2023-05-28T14:50:38.320Z,13.63
2023-05-28T14:53:07.447Z,14.85
2023-05-28T14:55:36.791Z,23.08
2023-05-28T14:58:05.959Z,12.23
2023-05-28T15:00:35.061Z,16.27
2023-05-28T15:03:04.191Z,14.88
2023-05-28T15:05:33.269Z,14.57
2023-05-28T15:08:04.000Z,13.20
2023-05-28T15:10:33.185Z,15.00
2023-05-28T15:13:02.374Z,14.75
2023-05-28T15:15:31.633Z,15.13
2023-05-28T15:18:00.805Z,16.90
2023-05-28T15:20:29.917Z,13.35
2023-05-28T15:22:58.996Z,13.77
2023-05-28T15:25:31.150Z,13.98
2023-05-28T15:28:02.340Z,15.18
2023-05-28T15:30:31.845Z,15.35
2023-05-28T15:33:02.889Z,14.10
2023-05-28T15:35:32.555Z,15.55
2023-05-28T15:38:02.135Z,14.48
2023-05-28T15:40:33.692Z,10.63
2023-05-28T15:43:06.947Z,14.40
2023-05-28T15:45:36.588Z,13.57
2023-05-28T15:48:05.944Z,13.07
2023-05-28T15:50:35.569Z,15.27
2023-05-28T15:53:04.765Z,15.02
2023-05-28T15:55:36.102Z,13.55
2023-05-28T15:58:05.575Z,14.73
2023-05-28T16:00:35.248Z,14.85
2023-05-28T16:03:07.194Z,13.65
2023-05-28T16:05:37.772Z,13.20
2023-05-28T16:08:07.533Z,14.77
2023-05-28T16:10:38.709Z,14.57
2023-05-28T16:13:09.226Z,14.40
2023-05-28T16:15:39.513Z,14.90
2023-05-28T16:18:10.766Z,16.45
2023-05-28T16:20:40.434Z,15.05
2023-05-28T16:23:10.126Z,13.63
2023-05-28T16:25:41.448Z,13.60
2023-05-28T16:28:10.916Z,11.80
2023-05-28T16:30:40.186Z,11.10
2023-05-28T16:33:09.944Z,14.07
2023-05-28T16:35:39.457Z,11.52
2023-05-28T16:38:09.166Z,12.02
2023-05-28T16:40:40.937Z,12.57
2023-05-28T16:43:10.551Z,10.50
2023-05-28T16:45:40.810Z,12.27
2023-05-28T16:48:12.523Z,9.80
2023-05-28T16:50:42.630Z,11.80
2023-05-28T16:53:13.210Z,10.80
2023-05-28T16:55:44.168Z,10.98
2023-05-28T16:58:13.215Z,12.48
2023-05-28T17:00:42.292Z,10.00
2023-05-28T17:03:11.445Z,9.95
2023-05-28T17:05:40.707Z,10.38
2023-05-28T17:08:09.899Z,8.90
2023-05-28T17:10:39.045Z,9.63
2023-05-28T17:13:09.904Z,11.07
2023-05-28T17:15:39.044Z,9.45
2023-05-28T17:18:08.292Z,11.48
2023-05-28T17:20:38.986Z,11.23
2023-05-28T17:23:08.645Z,9.10
2023-05-28T17:25:37.737Z,11.27
2023-05-28T17:28:06.818Z,12.35
2023-05-28T17:30:37.668Z,11.95
2023-05-28T17:33:06.904Z,12.82
2023-05-28T17:35:36.094Z,12.98
2023-05-28T17:38:05.319Z,14.10
2023-05-28T17:40:34.431Z,14.30
2023-05-28T17:43:03.449Z,12.82
2023-05-28T17:45:32.654Z,11.40
2023-05-28T17:48:04.492Z,12.68
2023-05-28T17:50:33.657Z,10.90
2023-05-28T17:53:02.631Z,12.88
2023-05-28T17:55:32.120Z,12.73
2023-05-28T17:58:01.327Z,10.63
2023-05-28T18:00:31.946Z,14.10
2023-05-28T18:03:03.920Z,10.10
2023-05-28T18:05:33.486Z,10.55
2023-05-28T18:08:02.523Z,9.93
2023-05-28T18:10:31.739Z,10.10
2023-05-28T18:13:00.806Z,8.82
2023-05-28T18:15:31.859Z,8.82
2023-05-28T18:18:03.472Z,9.52
2023-05-28T18:20:33.979Z,9.57
2023-05-28T18:23:04.980Z,8.80
2023-05-28T18:25:36.144Z,11.20
2023-05-28T18:28:08.187Z,8.70
2023-05-28T18:30:37.606Z,11.13
2023-05-28T18:33:08.403Z,11.70
2023-05-28T18:35:37.474Z,10.68
2023-05-28T18:38:06.712Z,9.10
2023-05-28T18:40:35.845Z,11.38
2023-05-28T18:43:04.924Z,9.55
2023-05-28T18:45:33.986Z,10.32
2023-05-28T18:48:03.129Z,10.13
2023-05-28T18:50:33.886Z,10.70
2023-05-28T18:53:02.880Z,12.95
2023-05-28T18:55:32.044Z,9.90
2023-05-28T18:58:02.657Z,9.82
2023-05-28T19:00:32.189Z,10.63
2023-05-28T19:03:01.311Z,10.68
2023-05-28T19:05:31.216Z,9.05
2023-05-28T19:08:01.989Z,9.70
2023-05-28T19:10:31.109Z,11.02
2023-05-28T19:13:00.128Z,9.65
2023-05-28T19:15:29.203Z,8.48
2023-05-28T19:17:58.354Z,10.70
2023-05-28T19:20:27.539Z,8.85
2023-05-28T19:22:56.650Z,9.68
2023-05-28T19:25:27.446Z,10.85
2023-05-28T19:27:56.637Z,11.35
2023-05-28T19:30:25.824Z,9.73
2023-05-28T19:32:54.893Z,11.07
2023-05-28T19:35:24.262Z,8.95
2023-05-28T19:37:53.382Z,10.82
2023-05-28T19:40:22.706Z,10.98
2023-05-28T19:42:53.439Z,10.65
2023-05-28T19:45:22.665Z,12.15
2023-05-28T19:47:52.066Z,12.02
2023-05-28T19:50:21.308Z,11.75
2023-05-28T19:52:50.320Z,12.50
2023-05-28T19:55:19.371Z,9.90
2023-05-28T19:57:48.566Z,11.70
2023-05-28T20:00:19.469Z,11.82
2023-05-28T20:02:48.661Z,14.48
2023-05-28T20:05:17.993Z,12.60
2023-05-28T20:07:48.886Z,12.20
2023-05-28T20:10:18.095Z,13.75
2023-05-28T20:12:47.169Z,11.27
2023-05-28T20:15:16.309Z,11.40
2023-05-28T20:17:47.044Z,12.73
2023-05-28T20:20:16.454Z,12.45
2023-05-28T20:22:45.688Z,11.82
2023-05-28T20:25:14.765Z,10.40
2023-05-28T20:27:43.867Z,11.20
2023-05-28T20:30:14.926Z,11.30
2023-05-28T20:32:45.648Z,12.98
2023-05-28T20:35:15.163Z,12.45
2023-05-28T20:37:47.623Z,14.10
2023-05-28T20:40:18.286Z,12.30
2023-05-28T20:42:47.302Z,12.00
2023-05-28T20:45:16.739Z,12.45
2023-05-28T20:47:48.472Z,14.50
2023-05-28T20:50:17.736Z,11.20
2023-05-28T20:52:47.154Z,11.15
2023-05-28T20:55:18.860Z,12.30
2023-05-28T20:57:49.840Z,10.35
2023-05-28T21:00:20.925Z,11.52
2023-05-28T21:02:55.481Z,11.65
2023-05-28T21:05:25.339Z,13.25
2023-05-28T21:07:54.568Z,12.02
2023-05-28T21:10:23.662Z,13.93
2023-05-28T21:12:53.020Z,12.65
2023-05-28T21:15:22.183Z,12.45
2023-05-28T21:17:53.064Z,11.68
2023-05-28T21:20:22.344Z,12.35
2023-05-28T21:22:51.396Z,10.52
2023-05-28T21:25:20.368Z,10.25
2023-05-28T21:27:49.908Z,12.32
2023-05-28T21:30:20.167Z,13.10
2023-05-28T21:32:49.342Z,12.13
2023-05-28T21:35:20.069Z,12.15
2023-05-28T21:37:51.098Z,9.38
2023-05-28T21:40:22.439Z,9.73
2023-05-28T21:42:52.740Z,10.23
2023-05-28T21:45:22.357Z,11.05
2023-05-28T21:47:51.544Z,12.32
2023-05-28T21:50:22.372Z,11.05
2023-05-28T21:52:51.554Z,10.32
2023-05-28T21:55:20.797Z,12.85
2023-05-28T21:57:49.948Z,13.18
2023-05-28T22:00:19.778Z,10.35
2023-05-28T22:02:49.001Z,10.95
2023-05-28T22:05:18.252Z,12.23
2023-05-28T22:07:49.040Z,10.82
2023-05-28T22:10:18.366Z,11.10
2023-05-28T22:12:47.616Z,11.68
2023-05-28T22:15:16.682Z,9.82
2023-05-28T22:17:46.759Z,11.68
2023-05-28T22:20:16.134Z,10.57
2023-05-28T22:22:45.213Z,8.73
2023-05-28T22:25:16.004Z,11.13
2023-05-28T22:27:45.099Z,10.68
2023-05-28T22:30:14.397Z,9.73
2023-05-28T22:32:43.447Z,9.48
2023-05-28T22:35:11.774Z,8.52
2023-05-28T22:37:40.872Z,11.25
2023-05-28T22:40:10.846Z,10.32
2023-05-28T22:42:43.097Z,10.07
2023-05-28T22:45:17.568Z,10.27
2023-05-28T22:47:49.965Z,12.15
2023-05-28T22:50:19.106Z,11.32
2023-05-28T22:52:50.961Z,9.20
2023-05-28T22:55:20.307Z,11.63
2023-05-28T22:57:51.024Z,12.38
2023-05-28T23:00:22.587Z,9.82
2023-05-28T23:02:52.601Z,10.40
2023-05-28T23:05:21.719Z,11.52
2023-05-28T23:07:50.775Z,11.20
2023-05-28T23:10:19.808Z,9.02
2023-05-28T23:12:50.533Z,10.48
2023-05-28T23:15:19.852Z,10.85
2023-05-28T23:17:51.328Z,10.95
2023-05-28T23:20:20.469Z,9.52
2023-05-28T23:22:49.525Z,11.75
2023-05-28T23:25:19.818Z,10.40
2023-05-28T23:27:50.544Z,9.43
2023-05-28T23:30:19.661Z,10.50
2023-05-28T23:32:49.238Z,8.88
2023-05-28T23:35:18.541Z,10.13
2023-05-28T23:37:47.922Z,9.65
2023-05-28T23:40:17.063Z,11.68
2023-05-28T23:42:46.074Z,9.52
2023-05-28T23:45:16.824Z,11.65
2023-05-28T23:47:45.864Z,8.70
2023-05-28T23:50:15.004Z,10.18
2023-05-28T23:52:44.130Z,8.50
2023-05-28T23:55:13.236Z,9.30
2023-05-28T23:57:42.366Z,8.25
